createdAt,value
2018-06-30T00:01:53.045Z,11.27
2018-06-30T00:04:21.168Z,10.60
2018-06-30T00:06:49.989Z,9.43
2018-06-30T00:09:18.246Z,9.60
2018-06-30T00:11:46.532Z,10.57
2018-06-30T00:14:14.684Z,12.70
2018-06-30T00:16:43.496Z,13.40
2018-06-30T00:19:11.662Z,11.50
2018-06-30T00:21:39.939Z,14.37
2018-06-30T00:24:08.096Z,13.50
2018-06-30T00:26:36.461Z,12.17
2018-06-30T00:29:04.665Z,11.60
2018-06-30T00:31:32.845Z,12.93
2018-06-30T00:34:00.981Z,14.67
2018-06-30T00:36:29.208Z,11.50
2018-06-30T00:38:57.396Z,10.17
2018-06-30T00:41:25.613Z,9.53
2018-06-30T00:43:53.906Z,12.27
2018-06-30T00:46:22.051Z,13.50
2018-06-30T00:48:50.168Z,11.70
2018-06-30T00:51:19.158Z,15.03
2018-06-30T00:53:47.358Z,11.60
2018-06-30T00:56:15.540Z,11.07
2018-06-30T00:58:43.684Z,13.33
2018-06-30T01:01:11.944Z,11.80
2018-06-30T01:03:40.208Z,9.93
2018-06-30T01:06:08.395Z,11.80
2018-06-30T01:08:37.263Z,11.73
2018-06-30T01:11:05.458Z,14.60
2018-06-30T01:13:33.652Z,10.37
2018-06-30T01:16:01.802Z,14.50
2018-06-30T01:18:30.189Z,10.63
2018-06-30T01:20:58.394Z,13.83
2018-06-30T01:23:26.536Z,14.80
2018-06-30T01:25:54.664Z,11.80
2018-06-30T01:28:22.810Z,12.13
2018-06-30T01:30:50.990Z,11.87
2018-06-30T01:33:19.142Z,11.50
2018-06-30T01:35:47.324Z,12.90
2018-06-30T01:38:15.493Z,12.23
2018-06-30T01:40:44.457Z,10.43
2018-06-30T01:43:13.147Z,11.33
2018-06-30T01:45:41.648Z,13.87
2018-06-30T01:48:09.833Z,11.03
2018-06-30T01:50:37.984Z,11.67
2018-06-30T01:53:06.130Z,10.77
2018-06-30T01:55:34.428Z,11.77
2018-06-30T01:58:02.576Z,12.70
2018-06-30T02:00:30.980Z,14.67
2018-06-30T02:02:59.681Z,13.10
2018-06-30T02:05:28.107Z,14.73
2018-06-30T02:07:56.873Z,12.13
2018-06-30T02:10:26.509Z,10.13
2018-06-30T02:12:54.622Z,9.50
2018-06-30T02:15:23.606Z,11.33
2018-06-30T02:17:51.792Z,10.87
2018-06-30T02:20:19.945Z,11.93
2018-06-30T02:22:48.148Z,12.20
2018-06-30T02:25:16.545Z,10.17
2018-06-30T02:27:44.772Z,11.30
2018-06-30T02:30:12.915Z,10.50
2018-06-30T02:32:41.105Z,10.60
2018-06-30T02:35:09.286Z,10.80
2018-06-30T02:37:38.228Z,10.03
2018-06-30T02:40:06.343Z,10.70
2018-06-30T02:42:35.136Z,9.47
2018-06-30T02:45:03.853Z,11.40
2018-06-30T02:47:33.538Z,12.80
2018-06-30T02:50:01.727Z,12.13
2018-06-30T02:52:29.893Z,10.73
2018-06-30T02:54:58.816Z,12.23
2018-06-30T02:57:27.099Z,9.77
2018-06-30T02:59:55.347Z,9.77
2018-06-30T03:02:23.825Z,9.53
2018-06-30T03:04:52.017Z,11.23
2018-06-30T03:07:20.175Z,9.73
2018-06-30T03:09:48.339Z,10.97
2018-06-30T03:12:17.343Z,10.37
2018-06-30T03:14:45.593Z,11.10
2018-06-30T03:17:13.777Z,8.70
2018-06-30T03:19:42.288Z,10.37
2018-06-30T03:22:10.444Z,12.10
2018-06-30T03:24:38.567Z,10.53
2018-06-30T03:27:07.547Z,9.07
2018-06-30T03:29:35.693Z,9.60
2018-06-30T03:32:04.639Z,11.30
2018-06-30T03:34:32.838Z,10.83
2018-06-30T03:37:01.894Z,10.90
2018-06-30T03:39:30.034Z,9.23
2018-06-30T03:41:58.162Z,9.07
2018-06-30T03:44:26.464Z,8.43
2018-06-30T03:46:54.633Z,9.47
2018-06-30T03:49:22.851Z,9.17
2018-06-30T03:51:51.166Z,9.80
2018-06-30T03:54:20.323Z,9.00
2018-06-30T03:56:49.019Z,8.27
2018-06-30T03:59:17.158Z,9.37
2018-06-30T04:01:45.321Z,9.33
2018-06-30T04:04:13.481Z,7.57
2018-06-30T04:06:42.423Z,7.73
2018-06-30T04:09:12.985Z,8.60
2018-06-30T04:11:42.145Z,7.60
2018-06-30T04:14:11.141Z,9.33
2018-06-30T04:16:39.288Z,5.97
2018-06-30T04:19:15.764Z,5.63
2018-06-30T04:21:46.274Z,7.57
2018-06-30T04:24:14.454Z,8.07
2018-06-30T04:26:43.550Z,6.40
2018-06-30T04:29:12.627Z,6.80
2018-06-30T04:31:40.827Z,7.40
2018-06-30T04:34:09.317Z,5.13
2018-06-30T04:36:37.457Z,5.73
2018-06-30T04:39:07.689Z,5.93
2018-06-30T04:41:35.975Z,4.72
2018-06-30T04:44:04.142Z,4.80
2018-06-30T04:46:32.283Z,4.62
2018-06-30T04:49:00.630Z,5.78
2018-06-30T04:51:29.554Z,6.15
2018-06-30T04:53:57.734Z,7.20
2018-06-30T04:56:26.019Z,3.87
2018-06-30T04:58:54.194Z,4.35
2018-06-30T05:01:22.374Z,4.12
2018-06-30T05:03:50.847Z,5.83
2018-06-30T05:06:19.032Z,5.15
2018-06-30T05:08:47.330Z,4.50
2018-06-30T05:11:16.170Z,4.80
2018-06-30T05:13:44.396Z,4.85
2018-06-30T05:16:12.524Z,4.42
2018-06-30T05:18:40.909Z,3.98
2018-06-30T05:21:09.087Z,4.08
2018-06-30T05:23:37.404Z,3.52
2018-06-30T05:26:05.852Z,3.65
2018-06-30T05:28:34.022Z,3.27
2018-06-30T05:31:02.200Z,2.98
2018-06-30T05:33:30.441Z,4.78
2018-06-30T05:35:59.087Z,3.37
2018-06-30T05:38:27.319Z,2.90
2018-06-30T05:40:55.532Z,2.27
2018-06-30T05:43:24.744Z,2.75
2018-06-30T05:45:53.019Z,3.17
2018-06-30T05:48:21.147Z,2.70
2018-06-30T05:50:49.337Z,3.75
2018-06-30T05:53:17.566Z,4.60
2018-06-30T05:55:45.671Z,3.25
2018-06-30T05:58:13.835Z,3.20
2018-06-30T06:00:42.016Z,2.77
2018-06-30T06:03:10.402Z,3.52
2018-06-30T06:05:38.546Z,3.40
2018-06-30T06:08:07.267Z,3.37
2018-06-30T06:10:35.404Z,3.27
2018-06-30T06:13:03.619Z,2.45
2018-06-30T06:15:31.750Z,2.37
2018-06-30T06:18:00.816Z,2.92
2018-06-30T06:20:29.572Z,2.35
2018-06-30T06:22:57.892Z,3.55
2018-06-30T06:25:26.130Z,2.25
2018-06-30T06:27:54.290Z,3.60
2018-06-30T06:30:22.460Z,2.53
2018-06-30T06:32:51.029Z,2.53
2018-06-30T06:35:19.729Z,3.97
2018-06-30T06:37:48.196Z,2.13
2018-06-30T06:40:17.098Z,3.33
2018-06-30T06:42:45.884Z,3.60
2018-06-30T06:45:14.057Z,3.10
2018-06-30T06:47:42.343Z,3.43
2018-06-30T06:50:10.499Z,3.10
2018-06-30T06:52:38.715Z,2.37
2018-06-30T06:55:08.173Z,2.57
2018-06-30T06:57:36.375Z,3.90
2018-06-30T07:00:05.095Z,6.30
2018-06-30T07:02:33.684Z,2.87
2018-06-30T07:05:02.315Z,2.53
2018-06-30T07:07:30.509Z,3.13
2018-06-30T07:09:58.638Z,2.90
2018-06-30T07:12:26.960Z,3.40
2018-06-30T07:14:55.288Z,3.00
2018-06-30T07:17:23.579Z,3.37
2018-06-30T07:19:52.554Z,2.53
2018-06-30T07:22:20.765Z,3.37
2018-06-30T07:24:48.957Z,2.10
2018-06-30T07:27:17.676Z,3.00
2018-06-30T07:29:46.044Z,5.00
2018-06-30T07:32:14.382Z,3.27
2018-06-30T07:34:42.635Z,3.67
2018-06-30T07:37:11.598Z,2.80
2018-06-30T07:39:39.920Z,3.03
2018-06-30T07:42:08.710Z,3.23
2018-06-30T07:44:37.109Z,4.33
2018-06-30T07:47:05.707Z,3.37
2018-06-30T07:49:33.899Z,4.07
2018-06-30T07:52:02.043Z,3.97
2018-06-30T07:54:31.607Z,2.70
2018-06-30T07:57:00.052Z,2.67
2018-06-30T07:59:28.284Z,3.17
2018-06-30T08:01:56.476Z,2.83
2018-06-30T08:04:24.648Z,3.43
2018-06-30T08:06:52.949Z,2.70
2018-06-30T08:09:21.931Z,2.33
2018-06-30T08:11:50.104Z,2.43
2018-06-30T08:14:18.361Z,3.87
2018-06-30T08:16:46.609Z,3.13
2018-06-30T08:19:14.834Z,2.30
2018-06-30T08:21:44.096Z,2.27
2018-06-30T08:24:12.372Z,2.67
2018-06-30T08:26:40.554Z,2.97
2018-06-30T08:29:08.741Z,2.30
2018-06-30T08:31:37.640Z,1.93
2018-06-30T08:34:06.124Z,3.13
2018-06-30T08:36:34.254Z,2.03
2018-06-30T08:39:02.470Z,1.57
2018-06-30T08:41:31.259Z,1.70
2018-06-30T08:43:59.432Z,1.80
2018-06-30T08:46:27.701Z,1.70
2018-06-30T08:48:55.830Z,3.13
2018-06-30T08:51:24.027Z,3.93
2018-06-30T08:53:52.132Z,1.80
2018-06-30T08:56:21.089Z,2.10
2018-06-30T08:58:49.965Z,1.43
2018-06-30T09:01:18.142Z,2.27
2018-06-30T09:03:47.067Z,4.07
2018-06-30T09:06:15.278Z,1.67
2018-06-30T09:08:43.529Z,1.80
2018-06-30T09:11:12.375Z,1.53
2018-06-30T09:13:41.011Z,3.07
2018-06-30T09:16:09.332Z,2.03
2018-06-30T09:18:38.216Z,1.83
2018-06-30T09:21:06.525Z,3.97
2018-06-30T09:23:34.719Z,1.70
2018-06-30T09:26:02.848Z,2.10
2018-06-30T09:28:31.653Z,4.03
2018-06-30T09:30:59.846Z,1.50
2018-06-30T09:33:28.040Z,2.57
2018-06-30T09:35:56.280Z,1.90
2018-06-30T09:38:24.473Z,2.43
2018-06-30T09:40:53.429Z,2.20
2018-06-30T09:43:21.621Z,1.33
2018-06-30T09:45:50.483Z,3.30
2018-06-30T09:48:18.660Z,1.87
2018-06-30T09:50:47.048Z,1.57
2018-06-30T09:53:15.165Z,1.90
2018-06-30T09:55:43.401Z,3.20
2018-06-30T09:58:12.399Z,1.27
2018-06-30T10:00:45.874Z,1.47
2018-06-30T10:03:14.042Z,1.90
2018-06-30T10:05:42.265Z,1.60
2018-06-30T10:08:10.416Z,2.90
2018-06-30T10:10:38.736Z,0.93
2018-06-30T10:13:06.864Z,1.57
2018-06-30T10:15:35.950Z,1.80
2018-06-30T10:18:04.590Z,0.77
2018-06-30T10:20:32.719Z,1.10
2018-06-30T10:23:00.900Z,1.50
2018-06-30T10:25:30.157Z,2.37
2018-06-30T10:27:58.554Z,0.90
2018-06-30T10:30:26.754Z,1.97
2018-06-30T10:32:54.890Z,1.40
2018-06-30T10:35:23.176Z,3.27
2018-06-30T10:37:52.110Z,1.57
2018-06-30T10:40:20.394Z,0.97
2018-06-30T10:42:48.518Z,1.33
2018-06-30T10:45:16.812Z,0.90
2018-06-30T10:47:45.415Z,1.30
2018-06-30T10:50:14.209Z,1.27
2018-06-30T10:52:42.347Z,1.07
2018-06-30T10:55:10.537Z,2.03
2018-06-30T10:57:38.710Z,1.10
2018-06-30T11:00:07.236Z,1.10
2018-06-30T11:02:35.463Z,1.00
2018-06-30T11:05:03.705Z,1.23
2018-06-30T11:07:31.805Z,1.77
2018-06-30T11:10:00.497Z,0.63
2018-06-30T11:12:28.655Z,1.17
2018-06-30T11:14:56.771Z,1.57
2018-06-30T11:17:25.139Z,0.70
2018-06-30T11:19:53.596Z,1.57
2018-06-30T11:22:22.407Z,2.60
2018-06-30T11:24:50.543Z,0.87
2018-06-30T11:27:18.751Z,1.00
2018-06-30T11:29:47.549Z,1.10
2018-06-30T11:32:16.301Z,0.43
2018-06-30T11:34:44.506Z,2.60
2018-06-30T11:37:12.643Z,0.60
2018-06-30T11:39:40.869Z,3.00
2018-06-30T11:42:09.217Z,3.40
2018-06-30T11:44:37.818Z,3.73
2018-06-30T11:47:06.919Z,1.77
2018-06-30T11:49:35.712Z,0.70
2018-06-30T11:52:03.948Z,1.73
2018-06-30T11:54:32.239Z,3.27
2018-06-30T11:57:00.406Z,1.03
2018-06-30T11:59:28.736Z,2.00
2018-06-30T12:01:57.032Z,3.37
2018-06-30T12:04:25.140Z,0.90
2018-06-30T12:06:54.222Z,0.70
2018-06-30T12:09:22.641Z,3.17
2018-06-30T12:11:51.284Z,0.77
2018-06-30T12:14:19.652Z,1.47
2018-06-30T12:16:48.086Z,2.43
2018-06-30T12:19:16.325Z,0.40
2018-06-30T12:21:44.504Z,2.23
2018-06-30T12:24:12.652Z,1.07
2018-06-30T12:26:40.837Z,1.70
2018-06-30T12:29:09.230Z,0.77
2018-06-30T12:31:37.395Z,1.07
2018-06-30T12:34:05.713Z,1.03
2018-06-30T12:36:33.953Z,0.47
2018-06-30T12:39:02.295Z,1.23
2018-06-30T12:41:30.451Z,0.80
2018-06-30T12:43:58.680Z,0.87
2018-06-30T12:46:27.041Z,0.30
2018-06-30T12:48:55.222Z,0.50
2018-06-30T12:51:24.322Z,4.00
2018-06-30T12:53:52.704Z,1.70
2018-06-30T12:56:20.896Z,1.20
2018-06-30T12:58:49.765Z,1.27
2018-06-30T13:01:18.480Z,2.43
2018-06-30T13:03:48.004Z,1.53
2018-06-30T13:06:16.135Z,0.73
2018-06-30T13:08:44.321Z,1.53
2018-06-30T13:11:12.666Z,0.67
2018-06-30T13:13:41.470Z,2.37
2018-06-30T13:16:09.780Z,1.50
2018-06-30T13:18:38.104Z,0.83
2018-06-30T13:21:06.833Z,0.63
2018-06-30T13:23:35.094Z,0.43
2018-06-30T13:26:03.377Z,1.60
2018-06-30T13:28:32.363Z,0.93
2018-06-30T13:31:00.554Z,0.80
2018-06-30T13:33:28.798Z,0.40
2018-06-30T13:35:56.939Z,1.07
2018-06-30T13:38:25.614Z,0.73
2018-06-30T13:40:54.525Z,0.60
2018-06-30T13:43:22.734Z,0.90
2018-06-30T13:45:51.090Z,2.67
2018-06-30T13:48:19.863Z,0.73
2018-06-30T13:50:48.054Z,0.60
2018-06-30T13:53:16.180Z,1.10
2018-06-30T13:55:44.553Z,0.50
2018-06-30T13:58:12.898Z,1.60
2018-06-30T14:00:41.563Z,0.97
2018-06-30T14:03:09.736Z,2.03
2018-06-30T14:05:37.937Z,1.43
2018-06-30T14:08:06.166Z,2.07
2018-06-30T14:10:34.382Z,0.70
2018-06-30T14:13:02.500Z,3.50
2018-06-30T14:15:30.645Z,0.73
2018-06-30T14:17:59.551Z,1.80
2018-06-30T14:20:28.261Z,2.17
2018-06-30T14:22:56.452Z,0.53
2018-06-30T14:25:25.240Z,1.50
2018-06-30T14:27:53.601Z,2.53
2018-06-30T14:30:21.814Z,0.63
2018-06-30T14:32:50.020Z,1.43
2018-06-30T14:35:18.272Z,0.53
2018-06-30T14:37:46.500Z,4.00
2018-06-30T14:40:15.579Z,0.80
2018-06-30T14:42:43.732Z,1.53
2018-06-30T14:45:12.569Z,0.67
2018-06-30T14:47:40.771Z,1.50
2018-06-30T14:50:08.969Z,0.70
2018-06-30T14:52:37.115Z,2.20
2018-06-30T14:55:05.426Z,1.40
2018-06-30T14:57:34.396Z,1.10
2018-06-30T15:00:02.717Z,2.20
2018-06-30T15:02:31.454Z,0.80
2018-06-30T15:04:59.582Z,1.93
2018-06-30T15:07:27.791Z,1.23
2018-06-30T15:09:56.401Z,0.70
2018-06-30T15:12:24.554Z,1.03
2018-06-30T15:14:53.357Z,2.53
2018-06-30T15:17:21.567Z,0.80
2018-06-30T15:19:49.733Z,2.20
2018-06-30T15:22:17.861Z,3.43
2018-06-30T15:24:46.683Z,0.90
2018-06-30T15:27:15.284Z,2.00
2018-06-30T15:29:43.836Z,2.23
2018-06-30T15:32:11.968Z,1.63
2018-06-30T15:34:41.440Z,0.87
2018-06-30T15:37:09.587Z,2.20
2018-06-30T15:39:37.828Z,1.60
2018-06-30T15:42:06.073Z,3.20
2018-06-30T15:44:34.312Z,1.33
2018-06-30T15:47:02.498Z,1.93
2018-06-30T15:49:31.251Z,1.23
2018-06-30T15:51:59.427Z,0.60
2018-06-30T15:54:27.816Z,1.97
2018-06-30T15:56:56.192Z,1.00
2018-06-30T15:59:24.327Z,2.00
2018-06-30T16:01:52.551Z,1.63
2018-06-30T16:04:21.017Z,0.73
2018-06-30T16:06:49.233Z,1.37
2018-06-30T16:09:17.385Z,0.60
2018-06-30T16:11:45.772Z,0.70
2018-06-30T16:14:13.919Z,3.43
2018-06-30T16:16:42.165Z,2.27
2018-06-30T16:19:10.383Z,1.00
2018-06-30T16:21:38.732Z,0.83
2018-06-30T16:24:06.891Z,2.33
2018-06-30T16:26:35.005Z,1.80
2018-06-30T16:29:04.509Z,2.63
2018-06-30T16:31:32.634Z,2.37
2018-06-30T16:34:00.854Z,2.40
2018-06-30T16:36:29.132Z,2.40
2018-06-30T16:38:58.217Z,0.70
2018-06-30T16:41:26.943Z,1.85
2018-06-30T16:43:55.244Z,0.70
2018-06-30T16:46:24.180Z,1.57
2018-06-30T16:48:52.304Z,1.60
2018-06-30T16:51:20.574Z,1.45
2018-06-30T16:53:48.713Z,2.35
2018-06-30T16:56:16.948Z,1.12
2018-06-30T16:58:45.328Z,0.78
2018-06-30T17:01:13.441Z,0.93
2018-06-30T17:03:42.366Z,1.62
2018-06-30T17:06:10.569Z,1.77
2018-06-30T17:08:38.678Z,1.32
2018-06-30T17:11:07.130Z,2.47
2018-06-30T17:13:35.277Z,3.50
2018-06-30T17:16:03.432Z,2.65
2018-06-30T17:18:31.668Z,0.60
2018-06-30T17:20:59.827Z,1.10
2018-06-30T17:23:28.597Z,0.62
2018-06-30T17:25:56.841Z,0.70
2018-06-30T17:28:24.970Z,1.55
2018-06-30T17:30:53.148Z,1.40
2018-06-30T17:33:21.301Z,2.05
2018-06-30T17:35:49.529Z,0.40
2018-06-30T17:38:17.814Z,1.30
2018-06-30T17:40:46.363Z,0.70
2018-06-30T17:43:14.852Z,2.05
2018-06-30T17:45:43.346Z,1.72
2018-06-30T17:48:12.002Z,1.55
2018-06-30T17:50:40.664Z,1.17
2018-06-30T17:53:09.557Z,1.75
2018-06-30T17:55:37.709Z,1.30
2018-06-30T17:58:06.530Z,1.22
2018-06-30T18:00:34.830Z,2.20
2018-06-30T18:03:03.312Z,2.02
2018-06-30T18:05:31.676Z,4.47
2018-06-30T18:08:00.050Z,1.15
2018-06-30T18:10:28.370Z,1.80
2018-06-30T18:12:56.452Z,3.30
2018-06-30T18:15:24.638Z,2.33
2018-06-30T18:17:52.937Z,0.78
2018-06-30T18:20:21.674Z,1.10
2018-06-30T18:22:50.047Z,0.98
2018-06-30T18:25:18.206Z,1.90
2018-06-30T18:27:47.014Z,0.70
2018-06-30T18:30:15.262Z,0.85
2018-06-30T18:32:44.006Z,0.75
2018-06-30T18:35:12.195Z,0.98
2018-06-30T18:37:40.404Z,2.70
2018-06-30T18:40:08.602Z,1.00
2018-06-30T18:42:36.777Z,1.02
2018-06-30T18:45:04.984Z,0.93
2018-06-30T18:47:34.399Z,2.12
2018-06-30T18:50:02.581Z,1.95
2018-06-30T18:52:31.046Z,0.75
2018-06-30T18:54:59.641Z,0.42
2018-06-30T18:57:27.921Z,1.17
2018-06-30T18:59:56.087Z,1.03
2018-06-30T19:02:24.311Z,1.60
2018-06-30T19:04:52.543Z,1.77
2018-06-30T19:07:20.704Z,2.73
2018-06-30T19:09:49.106Z,1.43
2018-06-30T19:12:18.022Z,0.93
2018-06-30T19:14:46.176Z,1.07
2018-06-30T19:17:14.431Z,1.43
2018-06-30T19:19:42.736Z,1.97
2018-06-30T19:22:10.980Z,2.20
2018-06-30T19:24:39.266Z,2.70
2018-06-30T19:27:08.168Z,1.40
2018-06-30T19:29:37.078Z,2.50
2018-06-30T19:32:05.267Z,1.60
2018-06-30T19:34:33.909Z,5.03
2018-06-30T19:37:02.194Z,2.93
2018-06-30T19:39:30.858Z,3.13
2018-06-30T19:41:59.048Z,2.77
2018-06-30T19:44:27.792Z,1.83
2018-06-30T19:46:56.869Z,4.10
2018-06-30T19:49:25.088Z,2.13
2018-06-30T19:51:54.852Z,3.47
2018-06-30T19:54:23.169Z,2.40
2018-06-30T19:56:51.574Z,1.70
2018-06-30T19:59:19.765Z,1.63
2018-06-30T20:01:47.918Z,2.23
2018-06-30T20:04:16.299Z,1.63
2018-06-30T20:06:44.571Z,1.70
2018-06-30T20:09:12.745Z,2.30
2018-06-30T20:11:40.999Z,2.70
2018-06-30T20:14:09.212Z,2.23
2018-06-30T20:16:38.022Z,3.37
2018-06-30T20:19:06.291Z,1.43
2018-06-30T20:21:34.831Z,2.67
2018-06-30T20:24:03.774Z,1.60
2018-06-30T20:26:32.146Z,2.87
2018-06-30T20:29:00.361Z,1.47
2018-06-30T20:31:28.618Z,1.73
2018-06-30T20:33:57.787Z,1.43
2018-06-30T20:36:25.916Z,2.00
2018-06-30T20:38:54.130Z,1.60
2018-06-30T20:41:22.382Z,2.00
2018-06-30T20:43:50.911Z,2.63
2018-06-30T20:46:19.105Z,4.30
2018-06-30T20:48:48.244Z,3.17
2018-06-30T20:51:16.423Z,1.97
2018-06-30T20:53:44.828Z,2.63
2018-06-30T20:56:13.948Z,2.20
2018-06-30T20:58:42.159Z,1.33
2018-06-30T21:01:10.458Z,2.30
2018-06-30T21:03:39.174Z,0.90
2018-06-30T21:06:07.588Z,2.27
2018-06-30T21:08:36.371Z,1.90
2018-06-30T21:11:04.714Z,1.73
2018-06-30T21:13:34.435Z,1.20
2018-06-30T21:16:02.655Z,1.00
2018-06-30T21:18:31.499Z,1.47
2018-06-30T21:21:01.024Z,1.50
2018-06-30T21:23:29.338Z,1.77
2018-06-30T21:25:57.778Z,2.33
2018-06-30T21:28:25.966Z,1.03
2018-06-30T21:30:54.114Z,3.80
2018-06-30T21:33:22.477Z,1.60
2018-06-30T21:35:50.831Z,1.77
2018-06-30T21:38:20.077Z,1.63
2018-06-30T21:40:48.274Z,2.17
2018-06-30T21:43:16.532Z,1.93
2018-06-30T21:45:44.648Z,1.03
2018-06-30T21:48:12.822Z,1.10
2018-06-30T21:50:41.496Z,0.93
2018-06-30T21:53:09.684Z,1.00
2018-06-30T21:55:37.896Z,1.27
2018-06-30T21:58:06.935Z,1.53
2018-06-30T22:00:46.827Z,1.10
2018-06-30T22:03:15.025Z,2.10
2018-06-30T22:05:43.209Z,1.37
2018-06-30T22:08:11.406Z,1.17
2018-06-30T22:10:39.641Z,2.60
2018-06-30T22:13:07.987Z,1.70
2018-06-30T22:15:36.543Z,2.87
2018-06-30T22:18:04.825Z,2.73
2018-06-30T22:20:33.902Z,1.27
2018-06-30T22:23:02.639Z,1.20
2018-06-30T22:25:31.379Z,2.47
2018-06-30T22:27:59.649Z,1.40
2018-06-30T22:30:27.845Z,3.93
2018-06-30T22:32:56.127Z,1.80
2018-06-30T22:35:24.355Z,2.70
2018-06-30T22:37:52.564Z,2.23
2018-06-30T22:40:20.738Z,1.43
2018-06-30T22:42:49.004Z,1.20
2018-06-30T22:45:17.610Z,1.33
2018-06-30T22:47:46.497Z,2.27
2018-06-30T22:50:15.479Z,1.67
2018-06-30T22:52:43.656Z,1.23
2018-06-30T22:55:11.797Z,1.10
2018-06-30T22:57:39.947Z,2.83
2018-06-30T23:00:09.885Z,1.20
2018-06-30T23:02:38.493Z,1.83
2018-06-30T23:05:07.286Z,3.80
2018-06-30T23:07:35.802Z,1.47
2018-06-30T23:10:04.183Z,1.23
2018-06-30T23:12:32.405Z,1.43
2018-06-30T23:15:01.289Z,1.30
2018-06-30T23:17:29.465Z,1.67
2018-06-30T23:19:58.387Z,2.23
2018-06-30T23:22:36.123Z,1.93
2018-06-30T23:25:04.761Z,2.07
2018-06-30T23:27:32.951Z,1.10
2018-06-30T23:30:01.104Z,1.90
2018-06-30T23:32:29.509Z,1.53
2018-06-30T23:34:57.676Z,2.87
2018-06-30T23:37:25.837Z,3.17
2018-06-30T23:39:54.027Z,0.90
2018-06-30T23:42:22.183Z,1.93
2018-06-30T23:44:50.353Z,1.83
2018-06-30T23:47:18.616Z,1.63
2018-06-30T23:49:46.811Z,1.47
2018-06-30T23:52:14.990Z,1.50
2018-06-30T23:54:43.147Z,1.23
2018-06-30T23:57:11.458Z,2.10
2018-06-30T23:59:39.606Z,1.27
